createdAt,value
2022-08-30T00:00:00.147Z,94.41
2022-08-30T00:02:29.206Z,95.16
2022-08-30T00:05:01.419Z,95.28
2022-08-30T00:07:30.721Z,95.69
2022-08-30T00:09:59.089Z,96.68
2022-08-30T00:12:28.899Z,96.92
2022-08-30T00:14:57.266Z,97.29
2022-08-30T00:17:26.536Z,97.51
2022-08-30T00:19:56.077Z,97.57
2022-08-30T00:22:24.507Z,98.10
2022-08-30T00:24:52.870Z,98.69
2022-08-30T00:27:21.204Z,99.06
2022-08-30T00:29:50.960Z,99.75
2022-08-30T00:32:21.341Z,99.76
2022-08-30T00:34:50.322Z,100.00
2022-08-30T00:37:18.935Z,100.00
2022-08-30T00:39:47.671Z,100.00
2022-08-30T00:42:16.594Z,100.00
2022-08-30T00:44:45.325Z,100.00
2022-08-30T00:47:15.132Z,100.00
2022-08-30T00:49:46.314Z,100.00
2022-08-30T00:52:16.925Z,100.00
2022-08-30T00:54:47.546Z,100.00
2022-08-30T00:57:16.518Z,100.00
2022-08-30T00:59:47.595Z,100.00
2022-08-30T01:02:19.319Z,100.00
2022-08-30T01:04:48.610Z,100.00
2022-08-30T01:07:16.990Z,100.00
2022-08-30T01:09:46.185Z,100.00
2022-08-30T01:12:14.754Z,100.00
2022-08-30T01:14:45.963Z,100.00
2022-08-30T01:17:15.749Z,100.00
2022-08-30T01:19:52.390Z,100.00
2022-08-30T01:22:26.557Z,100.00
2022-08-30T01:24:59.078Z,100.00
2022-08-30T01:27:29.286Z,100.00
2022-08-30T01:29:59.325Z,100.00
2022-08-30T01:32:30.063Z,100.00
2022-08-30T01:34:59.157Z,100.00
2022-08-30T01:37:31.125Z,100.00
2022-08-30T01:40:01.282Z,100.00
2022-08-30T01:42:29.861Z,100.00
2022-08-30T01:44:58.241Z,100.00
2022-08-30T01:47:27.367Z,100.00
2022-08-30T01:49:55.751Z,100.00
2022-08-30T01:52:24.148Z,100.00
2022-08-30T01:54:53.561Z,100.00
2022-08-30T01:57:26.752Z,100.00
2022-08-30T01:59:55.478Z,100.00
2022-08-30T02:02:26.895Z,100.00
2022-08-30T02:04:56.235Z,100.00
2022-08-30T02:07:25.099Z,100.00
2022-08-30T02:09:54.337Z,100.00
2022-08-30T02:12:24.077Z,100.00
2022-08-30T02:14:52.923Z,100.00
2022-08-30T02:17:21.284Z,100.00
2022-08-30T02:19:49.658Z,100.00
2022-08-30T02:22:18.118Z,100.00
2022-08-30T02:24:46.462Z,100.00
2022-08-30T02:27:14.776Z,100.00
2022-08-30T02:29:44.499Z,100.00
2022-08-30T02:32:12.870Z,100.00
2022-08-30T02:34:41.256Z,100.00
2022-08-30T02:37:09.704Z,100.00
2022-08-30T02:39:38.111Z,100.00
2022-08-30T02:42:06.774Z,100.00
2022-08-30T02:44:35.127Z,100.00
2022-08-30T02:47:05.630Z,100.00
2022-08-30T02:49:34.402Z,100.00
2022-08-30T02:52:04.128Z,100.00
2022-08-30T02:54:33.480Z,100.00
2022-08-30T02:57:04.792Z,100.00
2022-08-30T02:59:36.917Z,100.00
2022-08-30T03:02:06.722Z,100.00
2022-08-30T03:04:35.111Z,100.00
2022-08-30T03:07:03.477Z,100.00
2022-08-30T03:09:32.616Z,100.00
2022-08-30T03:12:01.020Z,100.00
2022-08-30T03:14:29.792Z,100.00
2022-08-30T03:16:58.244Z,100.00
2022-08-30T03:19:27.988Z,100.00
2022-08-30T03:21:56.382Z,100.00
2022-08-30T03:24:24.722Z,100.00
2022-08-30T03:26:53.467Z,100.00
2022-08-30T03:29:22.931Z,100.00
2022-08-30T03:31:52.836Z,100.00
2022-08-30T03:34:23.038Z,100.00
2022-08-30T03:36:54.874Z,100.00
2022-08-30T03:39:24.550Z,100.00
2022-08-30T03:41:53.740Z,100.00
2022-08-30T03:44:22.317Z,100.00
2022-08-30T03:46:51.379Z,100.00
2022-08-30T03:49:20.427Z,100.00
2022-08-30T03:51:48.834Z,100.00
2022-08-30T03:54:18.852Z,100.00
2022-08-30T03:56:47.189Z,100.00
2022-08-30T03:59:15.648Z,100.00
2022-08-30T04:01:45.724Z,100.00
2022-08-30T04:04:20.013Z,100.00
2022-08-30T04:06:49.781Z,100.00
2022-08-30T04:09:20.411Z,100.00
2022-08-30T04:11:48.790Z,100.00
2022-08-30T04:14:17.203Z,100.00
2022-08-30T04:16:45.821Z,100.00
2022-08-30T04:19:14.275Z,100.00
2022-08-30T04:21:44.793Z,100.00
2022-08-30T04:24:13.985Z,100.00
2022-08-30T04:26:43.971Z,100.00
2022-08-30T04:29:16.319Z,100.00
2022-08-30T04:31:45.251Z,100.00
2022-08-30T04:34:15.220Z,100.00
2022-08-30T04:36:48.209Z,100.00
2022-08-30T04:39:17.282Z,100.00
2022-08-30T04:41:47.034Z,100.00
2022-08-30T04:44:19.369Z,100.00
2022-08-30T04:46:48.290Z,100.00
2022-08-30T04:49:16.848Z,100.00
2022-08-30T04:51:45.401Z,100.00
2022-08-30T04:54:13.830Z,100.00
2022-08-30T04:56:43.674Z,100.00
2022-08-30T04:59:14.022Z,100.00
2022-08-30T05:01:45.045Z,100.00
2022-08-30T05:04:14.729Z,100.00
2022-08-30T05:06:43.579Z,100.00
2022-08-30T05:09:12.099Z,100.00
2022-08-30T05:11:40.448Z,100.00
2022-08-30T05:14:08.861Z,100.00
2022-08-30T05:16:38.624Z,100.00
2022-08-30T05:19:07.978Z,100.00
2022-08-30T05:21:37.068Z,100.00
2022-08-30T05:24:05.724Z,100.00
2022-08-30T05:26:35.636Z,100.00
2022-08-30T05:29:04.105Z,100.00
2022-08-30T05:31:34.791Z,100.00
2022-08-30T05:34:05.193Z,100.00
2022-08-30T05:36:36.797Z,100.00
2022-08-30T05:39:06.090Z,100.00
2022-08-30T05:41:35.401Z,100.00
2022-08-30T05:44:06.978Z,100.00
2022-08-30T05:46:36.779Z,100.00
2022-08-30T05:49:08.264Z,100.00
2022-08-30T05:51:42.841Z,100.00
2022-08-30T05:54:13.084Z,100.00
2022-08-30T05:56:45.176Z,100.00
2022-08-30T05:59:15.093Z,100.00
2022-08-30T06:01:45.751Z,100.00
2022-08-30T06:04:16.099Z,100.00
2022-08-30T06:06:45.249Z,100.00
2022-08-30T06:09:15.025Z,100.00
2022-08-30T06:11:43.813Z,100.00
2022-08-30T06:14:13.143Z,100.00
2022-08-30T06:16:44.062Z,100.00
2022-08-30T06:19:12.986Z,100.00
2022-08-30T06:21:43.776Z,100.00
2022-08-30T06:24:12.628Z,100.00
2022-08-30T06:26:43.706Z,100.00
2022-08-30T06:29:14.142Z,100.00
2022-08-30T06:31:42.919Z,100.00
2022-08-30T06:34:11.397Z,100.00
2022-08-30T06:36:40.068Z,100.00
2022-08-30T06:39:10.535Z,100.00
2022-08-30T06:41:41.306Z,100.00
2022-08-30T06:44:45.813Z,100.00
2022-08-30T06:47:14.266Z,100.00
2022-08-30T06:49:42.638Z,100.00
2022-08-30T06:52:11.466Z,100.00
2022-08-30T06:54:41.222Z,100.00
2022-08-30T06:57:09.591Z,100.00
2022-08-30T06:59:37.937Z,100.00
2022-08-30T07:02:06.581Z,100.00
2022-08-30T07:04:35.558Z,100.00
2022-08-30T07:07:04.062Z,100.00
2022-08-30T07:12:07.761Z,100.00
2022-08-30T07:14:36.395Z,100.00
2022-08-30T07:17:25.609Z,100.00
2022-08-30T07:19:53.010Z,100.00
2022-08-30T07:22:22.036Z,100.00
2022-08-30T07:24:50.392Z,100.00
2022-08-30T07:27:20.800Z,100.00
2022-08-30T07:29:50.033Z,100.00
2022-08-30T07:32:18.641Z,100.00
2022-08-30T07:34:46.987Z,100.00
2022-08-30T07:37:18.996Z,100.00
2022-08-30T07:39:48.204Z,100.00
2022-08-30T07:42:17.265Z,100.00
2022-08-30T07:44:47.003Z,100.00
2022-08-30T07:47:16.745Z,100.00
2022-08-30T07:49:45.126Z,100.00
2022-08-30T07:52:13.498Z,100.00
2022-08-30T07:54:43.045Z,100.00
2022-08-30T07:57:11.938Z,100.00
2022-08-30T07:59:40.332Z,100.00
2022-08-30T08:02:11.382Z,100.00
2022-08-30T08:04:39.941Z,100.00
2022-08-30T08:07:08.284Z,100.00
2022-08-30T08:09:38.470Z,100.00
2022-08-30T08:12:08.952Z,100.00
2022-08-30T08:14:38.003Z,100.00
2022-08-30T08:17:06.740Z,100.00
2022-08-30T08:19:36.935Z,100.00
2022-08-30T08:22:21.814Z,100.00
2022-08-30T08:24:50.865Z,100.00
2022-08-30T08:27:19.293Z,100.00
2022-08-30T08:29:47.667Z,100.00
2022-08-30T08:32:16.015Z,100.00
2022-08-30T08:34:46.463Z,100.00
2022-08-30T08:37:14.835Z,100.00
2022-08-30T08:39:43.166Z,100.00
2022-08-30T08:42:22.603Z,100.00
2022-08-30T08:44:59.659Z,100.00
2022-08-30T08:47:36.982Z,100.00
2022-08-30T08:50:12.136Z,100.00
2022-08-30T08:53:10.827Z,100.00
2022-08-30T08:55:49.851Z,100.00
2022-08-30T08:58:24.433Z,100.00
2022-08-30T09:00:54.124Z,100.00
2022-08-30T09:03:24.160Z,100.00
2022-08-30T09:05:55.521Z,100.00
2022-08-30T09:08:24.989Z,100.00
2022-08-30T09:10:58.359Z,100.00
2022-08-30T09:13:27.363Z,100.00
2022-08-30T09:15:57.826Z,100.00
2022-08-30T09:18:45.703Z,100.00
2022-08-30T09:21:21.673Z,100.00
2022-08-30T09:23:57.284Z,100.00
2022-08-30T09:26:31.369Z,100.00
2022-08-30T09:29:00.979Z,100.00
2022-08-30T09:31:31.386Z,100.00
2022-08-30T09:34:03.270Z,100.00
2022-08-30T09:36:36.325Z,100.00
2022-08-30T09:39:07.874Z,100.00
2022-08-30T09:41:40.206Z,100.00
2022-08-30T09:44:11.938Z,100.00
2022-08-30T09:46:49.556Z,100.00
2022-08-30T09:49:30.831Z,100.00
2022-08-30T09:52:12.973Z,100.00
2022-08-30T09:54:55.152Z,100.00
2022-08-30T09:57:37.542Z,100.00
2022-08-30T10:00:10.054Z,100.00
2022-08-30T10:02:55.314Z,100.00
2022-08-30T10:05:31.514Z,100.00
2022-08-30T10:08:13.069Z,100.00
2022-08-30T10:10:52.468Z,100.00
2022-08-30T10:13:45.392Z,100.00
2022-08-30T10:16:28.316Z,100.00
2022-08-30T10:19:04.287Z,100.00
2022-08-30T10:21:39.732Z,100.00
2022-08-30T10:24:13.691Z,100.00
2022-08-30T10:26:53.947Z,100.00
2022-08-30T10:29:26.572Z,100.00
2022-08-30T10:32:00.247Z,100.00
2022-08-30T10:34:33.914Z,100.00
2022-08-30T10:37:13.378Z,100.00
2022-08-30T10:39:48.785Z,100.00
2022-08-30T10:42:21.661Z,100.00
2022-08-30T10:44:53.990Z,100.00
2022-08-30T10:47:29.662Z,100.00
2022-08-30T10:50:05.693Z,100.00
2022-08-30T10:52:37.533Z,100.00
2022-08-30T10:55:13.161Z,100.00
2022-08-30T10:57:43.087Z,100.00
2022-08-30T11:00:16.736Z,100.00
2022-08-30T11:03:14.797Z,100.00
2022-08-30T11:05:56.927Z,100.00
2022-08-30T11:08:42.708Z,100.00
2022-08-30T11:11:22.936Z,100.00
2022-08-30T11:13:56.885Z,100.00
2022-08-30T11:16:35.725Z,100.00
2022-08-30T11:19:04.291Z,100.00
2022-08-30T11:21:36.111Z,100.00
2022-08-30T11:24:11.439Z,100.00
2022-08-30T11:27:02.642Z,100.00
2022-08-30T11:29:40.716Z,100.00
2022-08-30T11:32:46.935Z,100.00
2022-08-30T11:35:37.467Z,100.00
2022-08-30T11:38:20.886Z,100.00
2022-08-30T11:41:07.503Z,100.00
2022-08-30T11:43:56.062Z,100.00
2022-08-30T11:46:39.787Z,100.00
2022-08-30T11:49:51.283Z,100.00
2022-08-30T11:52:41.305Z,100.00
2022-08-30T11:55:24.266Z,100.00
2022-08-30T11:58:00.104Z,100.00
2022-08-30T12:00:34.291Z,100.00
2022-08-30T12:03:06.438Z,100.00
2022-08-30T12:05:57.516Z,100.00
2022-08-30T12:08:55.170Z,100.00
2022-08-30T12:12:03.086Z,100.00
2022-08-30T12:14:57.528Z,100.00
2022-08-30T12:17:50.769Z,100.00
2022-08-30T12:20:27.251Z,100.00
2022-08-30T12:22:56.779Z,100.00
2022-08-30T12:25:29.152Z,100.00
2022-08-30T12:28:11.914Z,100.00
2022-08-30T12:30:40.901Z,100.00
2022-08-30T12:33:29.100Z,100.00
2022-08-30T12:35:59.455Z,100.00
2022-08-30T12:38:29.772Z,100.00
2022-08-30T12:41:01.487Z,100.00
2022-08-30T12:43:40.152Z,100.00
2022-08-30T12:46:15.109Z,100.00
2022-08-30T12:48:46.001Z,99.09
2022-08-30T12:51:29.763Z,100.00
2022-08-30T12:54:07.432Z,100.00
2022-08-30T12:57:13.949Z,100.00
2022-08-30T12:59:58.564Z,100.00
2022-08-30T13:02:46.470Z,100.00
2022-08-30T13:05:48.401Z,100.00
2022-08-30T13:08:22.624Z,100.00
2022-08-30T13:10:52.039Z,98.69
2022-08-30T13:13:33.336Z,98.40
2022-08-30T13:16:11.624Z,100.00
2022-08-30T13:18:41.227Z,100.00
2022-08-30T13:21:30.190Z,100.00
2022-08-30T13:24:01.011Z,100.00
2022-08-30T13:26:33.774Z,100.00
2022-08-30T13:29:05.287Z,99.64
2022-08-30T13:31:39.017Z,99.61
2022-08-30T13:34:07.583Z,100.00
2022-08-30T13:36:45.177Z,100.00
2022-08-30T13:39:13.864Z,100.00
2022-08-30T13:41:42.231Z,100.00
2022-08-30T13:44:11.947Z,100.00
2022-08-30T13:46:44.087Z,100.00
2022-08-30T13:52:20.901Z,100.00
2022-08-30T13:54:51.277Z,98.48
2022-08-30T14:00:17.234Z,95.08
2022-08-30T14:02:53.819Z,94.78
2022-08-30T14:05:47.512Z,93.40
2022-08-30T14:11:05.873Z,93.78
2022-08-30T14:13:34.676Z,92.07
2022-08-30T14:18:56.212Z,90.34
2022-08-30T14:21:25.447Z,91.48
2022-08-30T14:23:56.097Z,90.09
2022-08-30T14:26:32.376Z,92.02
2022-08-30T14:29:03.301Z,89.33
2022-08-30T14:31:32.721Z,89.77
2022-08-30T14:34:03.267Z,85.27
2022-08-30T14:36:33.559Z,84.48
2022-08-30T14:39:06.275Z,85.15
2022-08-30T14:41:43.878Z,85.21
2022-08-30T14:44:13.467Z,83.63
2022-08-30T14:46:42.670Z,82.71
2022-08-30T14:49:12.115Z,83.55
2022-08-30T14:51:41.351Z,84.75
2022-08-30T14:54:11.156Z,85.38
2022-08-30T14:56:40.871Z,86.14
2022-08-30T14:59:09.808Z,86.03
2022-08-30T15:01:41.896Z,84.87
2022-08-30T15:04:11.172Z,84.33
2022-08-30T15:06:42.374Z,84.04
2022-08-30T15:09:14.687Z,85.43
2022-08-30T15:11:44.519Z,85.34
2022-08-30T15:14:16.374Z,84.00
2022-08-30T15:16:45.523Z,83.00
2022-08-30T15:19:14.293Z,82.29
2022-08-30T15:21:46.080Z,83.07
2022-08-30T15:24:18.252Z,84.21
2022-08-30T15:26:46.995Z,82.45
2022-08-30T15:29:18.445Z,80.98
2022-08-30T15:31:49.823Z,80.33
2022-08-30T15:34:21.801Z,79.19
2022-08-30T15:36:57.704Z,74.20
2022-08-30T15:39:27.765Z,74.81
2022-08-30T15:42:01.105Z,74.24
2022-08-30T15:44:31.001Z,73.31
2022-08-30T15:46:59.772Z,73.00
2022-08-30T15:49:28.283Z,72.62
2022-08-30T15:52:01.735Z,71.90
2022-08-30T15:54:32.641Z,71.71
2022-08-30T15:57:01.730Z,72.21
2022-08-30T15:59:31.158Z,72.01
2022-08-30T16:01:59.702Z,71.71
2022-08-30T16:04:28.106Z,71.81
2022-08-30T16:06:56.502Z,71.93
2022-08-30T16:09:26.519Z,71.81
2022-08-30T16:12:00.000Z,72.43
2022-08-30T16:14:28.809Z,72.01
2022-08-30T16:16:57.726Z,71.66
2022-08-30T16:19:27.185Z,71.98
2022-08-30T16:21:57.862Z,71.34
2022-08-30T16:24:26.478Z,70.27
2022-08-30T16:26:55.140Z,68.84
2022-08-30T16:29:24.887Z,68.68
2022-08-30T16:31:53.378Z,68.89
2022-08-30T16:34:22.290Z,68.50
2022-08-30T16:36:51.050Z,68.06
2022-08-30T16:39:19.817Z,67.22
2022-08-30T16:41:49.003Z,67.44
2022-08-30T16:44:18.572Z,67.54
2022-08-30T16:46:53.095Z,67.05
2022-08-30T16:49:25.527Z,67.21
2022-08-30T16:51:54.264Z,67.13
2022-08-30T16:54:22.970Z,66.91
2022-08-30T16:56:51.679Z,67.25
2022-08-30T16:59:20.138Z,68.50
2022-08-30T17:01:50.274Z,68.17
2022-08-30T17:04:19.877Z,67.64
2022-08-30T17:06:50.452Z,68.26
2022-08-30T17:09:20.603Z,68.78
2022-08-30T17:11:49.421Z,68.49
2022-08-30T17:14:27.457Z,68.25
2022-08-30T17:16:57.890Z,68.50
2022-08-30T17:19:27.167Z,68.84
2022-08-30T17:21:58.354Z,68.78
2022-08-30T17:24:27.352Z,68.46
2022-08-30T17:26:55.775Z,69.10
2022-08-30T17:29:24.130Z,69.00
2022-08-30T17:31:52.565Z,68.79
2022-08-30T17:34:23.887Z,69.39
2022-08-30T17:36:57.111Z,69.37
2022-08-30T17:39:25.842Z,69.13
2022-08-30T17:41:54.638Z,69.22
2022-08-30T17:44:28.888Z,69.24
2022-08-30T17:46:59.702Z,68.73
2022-08-30T17:49:30.441Z,68.87
2022-08-30T17:51:59.914Z,68.84
2022-08-30T17:54:29.888Z,68.80
2022-08-30T17:56:59.735Z,69.02
2022-08-30T17:59:29.313Z,69.25
2022-08-30T18:02:00.242Z,69.29
2022-08-30T18:04:30.397Z,69.24
2022-08-30T18:06:59.390Z,68.98
2022-08-30T18:09:33.229Z,69.63
2022-08-30T18:12:02.679Z,69.62
2022-08-30T18:14:31.506Z,69.37
2022-08-30T18:16:59.918Z,69.56
2022-08-30T18:19:32.036Z,69.79
2022-08-30T18:22:03.424Z,69.75
2022-08-30T18:24:32.376Z,70.12
2022-08-30T18:27:01.933Z,69.65
2022-08-30T18:29:32.050Z,70.03
2022-08-30T18:32:01.838Z,69.89
2022-08-30T18:34:32.401Z,70.10
2022-08-30T18:37:01.509Z,70.58
2022-08-30T18:39:34.485Z,70.55
2022-08-30T18:42:07.408Z,70.58
2022-08-30T18:44:39.778Z,70.55
2022-08-30T18:47:09.339Z,70.48
2022-08-30T18:49:40.216Z,70.71
2022-08-30T18:52:10.868Z,70.84
2022-08-30T18:54:41.528Z,71.07
2022-08-30T18:57:10.502Z,71.00
2022-08-30T18:59:39.243Z,71.40
2022-08-30T19:02:12.782Z,71.29
2022-08-30T19:04:43.669Z,71.47
2022-08-30T19:07:14.821Z,71.63
2022-08-30T19:09:45.155Z,71.46
2022-08-30T19:12:14.581Z,71.65
2022-08-30T19:14:43.040Z,71.92
2022-08-30T19:17:11.564Z,72.11
2022-08-30T19:19:46.493Z,72.34
2022-08-30T19:22:20.317Z,72.38
2022-08-30T19:24:50.238Z,72.69
2022-08-30T19:27:21.651Z,72.50
2022-08-30T19:30:07.419Z,72.95
2022-08-30T19:32:35.776Z,73.30
2022-08-30T19:35:04.357Z,73.38
2022-08-30T19:37:34.373Z,73.57
2022-08-30T19:40:04.538Z,73.82
2022-08-30T19:42:32.923Z,73.99
2022-08-30T19:45:01.307Z,74.32
2022-08-30T19:47:29.710Z,74.24
2022-08-30T19:49:58.359Z,74.32
2022-08-30T19:52:30.366Z,74.84
2022-08-30T19:55:00.939Z,74.96
2022-08-30T19:57:29.479Z,75.13
2022-08-30T19:59:59.040Z,75.09
2022-08-30T20:02:27.888Z,75.46
2022-08-30T20:04:56.320Z,75.37
2022-08-30T20:07:28.377Z,75.42
2022-08-30T20:09:56.972Z,75.56
2022-08-30T20:12:26.836Z,75.69
2022-08-30T20:14:55.167Z,75.91
2022-08-30T20:17:37.895Z,76.00
2022-08-30T20:20:17.748Z,75.94
2022-08-30T20:22:50.783Z,76.26
2022-08-30T20:25:23.184Z,76.22
2022-08-30T20:27:53.019Z,76.80
2022-08-30T20:30:21.517Z,76.74
2022-08-30T20:32:49.895Z,76.56
2022-08-30T20:35:18.656Z,77.02
2022-08-30T20:37:47.197Z,76.68
2022-08-30T20:40:16.381Z,77.21
2022-08-30T20:42:46.239Z,77.11
2022-08-30T20:45:18.106Z,77.21
2022-08-30T20:47:46.704Z,76.92
2022-08-30T20:50:17.370Z,77.38
2022-08-30T20:52:47.262Z,76.98
2022-08-30T20:55:17.290Z,77.05
2022-08-30T20:57:45.783Z,77.33
2022-08-30T21:00:16.596Z,77.00
2022-08-30T21:02:45.775Z,76.98
2022-08-30T21:05:15.721Z,77.41
2022-08-30T21:07:44.623Z,77.33
2022-08-30T21:10:13.939Z,77.06
2022-08-30T21:12:42.732Z,77.29
2022-08-30T21:15:33.946Z,77.53
2022-08-30T21:18:01.656Z,77.55
2022-08-30T21:20:30.375Z,77.33
2022-08-30T21:22:58.725Z,77.33
2022-08-30T21:25:27.082Z,77.45
2022-08-30T21:27:55.495Z,77.55
2022-08-30T21:30:23.875Z,77.45
2022-08-30T21:32:52.224Z,77.33
2022-08-30T21:35:39.560Z,77.79
2022-08-30T21:38:08.855Z,77.29
2022-08-30T21:40:37.823Z,77.54
2022-08-30T21:43:07.530Z,78.02
2022-08-30T21:45:38.587Z,77.73
2022-08-30T21:48:07.064Z,78.07
2022-08-30T21:50:39.798Z,78.02
2022-08-30T21:53:08.236Z,77.80
2022-08-30T21:55:36.690Z,78.00
2022-08-30T21:58:05.829Z,78.50
2022-08-30T22:00:34.181Z,78.05
2022-08-30T22:03:02.597Z,78.30
2022-08-30T22:05:30.990Z,78.13
2022-08-30T22:08:00.778Z,78.70
2022-08-30T22:10:33.051Z,78.82
2022-08-30T22:13:01.857Z,78.73
2022-08-30T22:15:32.218Z,78.43
2022-08-30T22:18:00.608Z,78.83
2022-08-30T22:20:30.520Z,78.48
2022-08-30T22:23:00.475Z,79.12
2022-08-30T22:25:28.818Z,78.71
2022-08-30T22:27:57.128Z,78.83
2022-08-30T22:30:25.530Z,79.62
2022-08-30T22:32:55.502Z,79.59
2022-08-30T22:35:25.107Z,79.42
2022-08-30T22:37:53.823Z,79.86
2022-08-30T22:40:24.736Z,80.09
2022-08-30T22:42:53.263Z,80.26
2022-08-30T22:45:21.787Z,80.15
2022-08-30T22:47:50.157Z,80.17
2022-08-30T22:50:18.619Z,80.42
2022-08-30T22:52:47.219Z,80.61
2022-08-30T22:55:15.898Z,80.68
2022-08-30T22:57:45.599Z,80.72
2022-08-30T23:00:17.181Z,80.92
2022-08-30T23:02:50.298Z,80.75
2022-08-30T23:05:21.082Z,81.01
2022-08-30T23:07:50.735Z,80.83
2022-08-30T23:10:20.388Z,81.04
2022-08-30T23:12:50.088Z,81.45
2022-08-30T23:15:18.458Z,80.83
2022-08-30T23:17:46.783Z,81.51
2022-08-30T23:20:15.275Z,81.34
2022-08-30T23:22:43.984Z,81.76
2022-08-30T23:25:31.915Z,81.31
2022-08-30T23:28:20.952Z,81.90
2022-08-30T23:31:06.992Z,81.84
2022-08-30T23:33:52.849Z,81.67
2022-08-30T23:36:38.457Z,82.03
2022-08-30T23:39:24.502Z,82.16
2022-08-30T23:42:10.126Z,82.31
2022-08-30T23:44:57.393Z,82.28
2022-08-30T23:47:43.068Z,82.38
2022-08-30T23:50:28.610Z,82.67
2022-08-30T23:53:14.601Z,82.56
2022-08-30T23:56:00.554Z,82.69
2022-08-30T23:58:46.150Z,82.76
